createdAt,value
2022-08-31T06:03:30.409Z,0.60
2022-08-31T06:05:59.329Z,0.80
2022-08-31T06:08:27.739Z,0.90
2022-08-31T06:10:59.527Z,1.40
2022-08-31T06:13:28.212Z,1.40
2022-08-31T06:15:59.227Z,1.20
2022-08-31T06:18:28.628Z,1.00
2022-08-31T06:21:10.084Z,0.80
2022-08-31T06:23:42.565Z,1.10
2022-08-31T06:26:15.069Z,1.00
2022-08-31T06:28:47.004Z,1.10
2022-08-31T06:31:20.037Z,1.10
2022-08-31T06:33:49.116Z,0.90
2022-08-31T06:36:26.017Z,1.10
2022-08-31T06:39:01.966Z,1.30
2022-08-31T06:41:52.757Z,1.00
2022-08-31T06:44:27.806Z,1.30
2022-08-31T06:47:19.683Z,1.20
2022-08-31T06:49:50.859Z,1.00
2022-08-31T06:52:21.246Z,1.10
2022-08-31T06:55:07.469Z,1.10
2022-08-31T06:57:54.623Z,1.00
2022-08-31T07:00:33.924Z,1.00
2022-08-31T07:03:33.391Z,0.90
2022-08-31T07:06:12.662Z,0.80
2022-08-31T07:08:42.421Z,0.80
2022-08-31T07:11:14.529Z,0.80
2022-08-31T07:13:43.989Z,0.90
2022-08-31T07:16:17.214Z,0.90
2022-08-31T07:18:47.442Z,1.10
2022-08-31T07:21:30.027Z,1.10
2022-08-31T07:24:06.065Z,1.10
2022-08-31T07:26:49.091Z,1.10
2022-08-31T07:29:24.235Z,1.00
2022-08-31T07:31:56.805Z,0.90
2022-08-31T07:34:28.262Z,0.80
2022-08-31T07:37:27.252Z,0.60
2022-08-31T07:40:15.336Z,0.70
2022-08-31T07:42:47.114Z,0.60
2022-08-31T07:47:56.914Z,0.80
2022-08-31T07:50:31.810Z,0.60
2022-08-31T07:53:15.244Z,0.60
2022-08-31T07:56:00.654Z,0.90
2022-08-31T07:58:35.372Z,0.60
2022-08-31T08:01:04.521Z,0.70
2022-08-31T08:03:33.174Z,0.50
2022-08-31T08:06:22.026Z,0.70
2022-08-31T08:09:24.630Z,0.50
2022-08-31T08:12:09.222Z,0.60
2022-08-31T08:14:45.325Z,0.60
2022-08-31T08:17:34.238Z,0.80
2022-08-31T08:20:13.362Z,0.60
2022-08-31T08:22:54.095Z,0.70
2022-08-31T08:25:36.691Z,0.50
2022-08-31T08:28:39.226Z,0.60
2022-08-31T08:31:18.712Z,0.40
2022-08-31T08:33:47.792Z,0.70
2022-08-31T08:36:18.623Z,0.50
2022-08-31T08:38:51.739Z,1.50
2022-08-31T08:41:25.354Z,0.60
2022-08-31T08:44:00.913Z,0.40
2022-08-31T08:46:39.005Z,0.80
2022-08-31T08:49:31.602Z,0.60
2022-08-31T08:52:04.430Z,0.70
2022-08-31T08:54:38.977Z,0.50
2022-08-31T08:57:15.159Z,0.50
2022-08-31T08:59:47.564Z,0.50
2022-08-31T09:02:25.964Z,0.60
2022-08-31T09:05:25.209Z,0.60
2022-08-31T09:08:14.474Z,0.50
2022-08-31T09:11:10.504Z,0.90
2022-08-31T09:13:58.935Z,0.60
2022-08-31T09:16:41.077Z,0.80
2022-08-31T09:22:04.406Z,0.50
2022-08-31T09:24:33.130Z,0.70
2022-08-31T09:27:18.414Z,0.50
2022-08-31T09:29:59.314Z,0.40
2022-08-31T09:32:36.252Z,0.50
2022-08-31T09:35:29.731Z,0.50
2022-08-31T09:38:07.996Z,0.50
2022-08-31T09:40:48.550Z,0.50
2022-08-31T09:43:31.507Z,0.40
2022-08-31T09:46:05.335Z,0.50
2022-08-31T09:48:46.159Z,0.80
2022-08-31T09:51:30.161Z,0.60
2022-08-31T09:54:25.316Z,0.70
2022-08-31T09:56:56.507Z,0.50
2022-08-31T09:59:44.697Z,0.60
2022-08-31T10:02:33.562Z,0.40
2022-08-31T10:05:24.520Z,0.60
2022-08-31T10:08:04.469Z,0.40
2022-08-31T10:10:37.947Z,0.50
2022-08-31T10:13:19.101Z,0.70
2022-08-31T10:16:01.987Z,0.50
2022-08-31T10:18:30.522Z,0.50
2022-08-31T10:21:08.484Z,0.50
2022-08-31T10:23:54.315Z,0.50
2022-08-31T10:26:36.754Z,0.50
2022-08-31T10:29:28.825Z,0.70
2022-08-31T10:32:00.106Z,0.50
2022-08-31T10:34:51.840Z,0.40
2022-08-31T10:37:24.341Z,0.40
2022-08-31T10:39:58.520Z,0.60
2022-08-31T10:42:38.088Z,0.70
2022-08-31T10:45:22.514Z,0.50
2022-08-31T10:47:54.929Z,0.80
2022-08-31T10:50:46.271Z,0.60
2022-08-31T10:53:21.889Z,0.80
2022-08-31T10:55:58.662Z,0.90
2022-08-31T10:58:37.785Z,1.00
2022-08-31T11:01:24.989Z,0.70
2022-08-31T11:04:12.331Z,0.50
2022-08-31T11:06:47.200Z,0.70
2022-08-31T11:09:33.879Z,0.70
2022-08-31T11:12:11.580Z,0.50
2022-08-31T11:15:10.063Z,0.50
2022-08-31T11:18:10.014Z,0.60
2022-08-31T11:21:06.035Z,0.50
2022-08-31T11:23:45.214Z,0.40
2022-08-31T11:26:46.212Z,0.50
2022-08-31T11:29:28.947Z,0.50
2022-08-31T11:32:19.627Z,0.40
2022-08-31T11:34:54.164Z,0.40
2022-08-31T11:37:56.319Z,0.60
2022-08-31T11:40:41.919Z,0.40
2022-08-31T11:43:33.095Z,0.70
2022-08-31T11:46:27.235Z,0.60
2022-08-31T11:48:56.093Z,0.30
2022-08-31T11:51:38.601Z,0.60
2022-08-31T11:54:14.107Z,0.50
2022-08-31T11:56:47.690Z,0.60
2022-08-31T11:59:34.248Z,0.40
2022-08-31T12:02:21.701Z,0.50
2022-08-31T12:04:53.790Z,0.70
2022-08-31T12:07:41.575Z,0.40
2022-08-31T12:10:16.962Z,0.60
2022-08-31T12:12:55.036Z,0.60
2022-08-31T12:15:42.688Z,0.70
2022-08-31T12:18:42.367Z,0.60
2022-08-31T12:21:56.793Z,0.50
2022-08-31T12:24:49.396Z,0.50
2022-08-31T12:27:24.165Z,0.70
2022-08-31T12:30:25.353Z,0.60
2022-08-31T12:33:15.315Z,0.80
2022-08-31T12:35:46.391Z,0.60
2022-08-31T12:38:21.329Z,0.50
2022-08-31T12:40:57.356Z,0.50
2022-08-31T12:43:38.859Z,0.90
2022-08-31T12:49:16.107Z,0.60
2022-08-31T12:51:50.228Z,0.50
2022-08-31T12:54:53.145Z,0.50
2022-08-31T12:58:16.564Z,0.50
2022-08-31T13:00:45.999Z,0.50
2022-08-31T13:03:17.379Z,0.50
2022-08-31T13:06:02.344Z,0.60
2022-08-31T13:08:44.983Z,0.60
2022-08-31T13:11:40.952Z,0.60
2022-08-31T13:14:20.732Z,0.60
2022-08-31T13:16:52.253Z,0.50
2022-08-31T13:19:29.574Z,0.50
2022-08-31T13:22:17.117Z,0.50
2022-08-31T13:24:53.658Z,0.40
2022-08-31T13:27:26.922Z,0.50
2022-08-31T13:29:59.434Z,0.50
2022-08-31T13:32:32.736Z,0.50
2022-08-31T13:35:05.307Z,0.60
2022-08-31T13:37:40.836Z,0.60
2022-08-31T13:40:24.957Z,0.70
2022-08-31T13:42:56.786Z,0.50
2022-08-31T13:45:27.560Z,0.60
2022-08-31T13:47:59.968Z,0.80
2022-08-31T13:50:53.459Z,0.40
2022-08-31T13:53:40.191Z,0.50
2022-08-31T13:56:48.765Z,0.40
2022-08-31T13:59:27.084Z,0.60
2022-08-31T14:02:00.563Z,0.50
2022-08-31T14:04:44.357Z,0.60
2022-08-31T14:07:24.755Z,0.70
2022-08-31T14:10:20.530Z,0.60
2022-08-31T14:12:57.169Z,0.50
2022-08-31T14:15:58.285Z,0.40
2022-08-31T14:18:40.258Z,0.40
2022-08-31T14:21:26.397Z,0.50
2022-08-31T14:24:00.547Z,0.50
2022-08-31T14:26:35.423Z,0.60
2022-08-31T14:29:11.067Z,0.40
2022-08-31T14:31:52.579Z,0.50
2022-08-31T14:34:32.376Z,0.60
2022-08-31T14:37:20.167Z,0.70
2022-08-31T14:40:14.129Z,0.70
2022-08-31T14:42:44.434Z,0.60
2022-08-31T14:45:21.060Z,0.70
2022-08-31T14:47:53.724Z,0.70
2022-08-31T14:50:27.213Z,0.60
2022-08-31T14:52:57.781Z,0.70
2022-08-31T14:55:27.560Z,0.70
2022-08-31T14:58:08.666Z,0.80
2022-08-31T15:00:43.973Z,1.00
2022-08-31T15:03:15.386Z,0.70
2022-08-31T15:05:43.937Z,0.70
2022-08-31T15:08:12.466Z,0.60
2022-08-31T15:10:41.485Z,0.70
2022-08-31T15:13:10.953Z,0.80
2022-08-31T15:15:39.380Z,0.50
2022-08-31T15:18:08.394Z,0.50
2022-08-31T15:20:42.100Z,0.70
2022-08-31T15:23:10.729Z,0.90
2022-08-31T15:25:39.551Z,0.90
2022-08-31T15:28:08.973Z,1.40
2022-08-31T15:30:39.913Z,1.10
2022-08-31T15:33:11.434Z,0.80
2022-08-31T15:35:42.078Z,1.00
2022-08-31T15:38:11.980Z,0.70
2022-08-31T15:40:40.915Z,0.90
2022-08-31T15:43:12.655Z,0.70
2022-08-31T15:45:41.493Z,0.90
2022-08-31T15:48:28.689Z,1.00
2022-08-31T15:51:03.324Z,1.00
2022-08-31T15:53:32.322Z,1.00
2022-08-31T15:56:06.787Z,0.90
2022-08-31T15:58:39.278Z,0.90
2022-08-31T16:01:16.668Z,0.70
2022-08-31T16:03:52.747Z,0.80
2022-08-31T16:06:25.892Z,0.80
2022-08-31T16:08:56.593Z,0.70
2022-08-31T16:11:28.386Z,0.70
2022-08-31T16:14:01.084Z,0.80
2022-08-31T16:16:36.895Z,3.10
2022-08-31T16:19:08.325Z,1.70
2022-08-31T16:21:44.735Z,0.70
2022-08-31T16:24:18.180Z,0.80
2022-08-31T16:26:51.353Z,1.30
2022-08-31T16:29:22.698Z,0.90
2022-08-31T16:31:51.816Z,1.30
2022-08-31T16:34:20.866Z,1.40
2022-08-31T16:36:52.328Z,1.00
2022-08-31T16:39:21.659Z,1.40
2022-08-31T16:41:51.245Z,1.10
2022-08-31T16:44:20.480Z,1.00
2022-08-31T16:46:49.272Z,1.20
2022-08-31T16:49:36.662Z,1.20
2022-08-31T16:52:11.601Z,1.10
2022-08-31T16:54:46.303Z,0.90
2022-08-31T16:57:18.865Z,0.90
2022-08-31T17:02:17.490Z,1.10
2022-08-31T17:04:52.634Z,1.20
2022-08-31T17:07:24.879Z,1.00
2022-08-31T17:10:06.690Z,1.00
2022-08-31T17:12:38.361Z,2.90
2022-08-31T17:15:09.486Z,1.90
2022-08-31T17:17:38.048Z,1.30
2022-08-31T17:20:08.355Z,1.00
2022-08-31T17:22:37.428Z,1.70
2022-08-31T17:25:08.174Z,0.70
2022-08-31T17:27:37.178Z,1.10
2022-08-31T17:30:08.137Z,0.80
2022-08-31T17:32:37.333Z,0.90
2022-08-31T17:35:19.310Z,1.00
2022-08-31T17:37:50.941Z,0.90
2022-08-31T17:40:20.272Z,2.00
2022-08-31T17:42:49.820Z,1.60
2022-08-31T17:45:18.325Z,1.60
2022-08-31T17:47:46.724Z,1.50
2022-08-31T17:50:17.897Z,1.40
2022-08-31T17:52:47.663Z,1.50
2022-08-31T17:55:16.213Z,1.30
2022-08-31T17:57:46.208Z,1.20
2022-08-31T18:00:16.118Z,1.50
2022-08-31T18:02:46.095Z,2.40
2022-08-31T18:05:17.075Z,1.60
2022-08-31T18:07:50.150Z,1.50
2022-08-31T18:12:47.741Z,1.60
2022-08-31T18:15:19.068Z,1.50
2022-08-31T18:17:48.388Z,2.20
2022-08-31T18:20:17.348Z,1.80
2022-08-31T18:22:51.568Z,1.80
2022-08-31T18:25:21.482Z,1.60
2022-08-31T18:27:50.000Z,1.60
2022-08-31T18:30:19.499Z,1.20
2022-08-31T18:32:49.836Z,1.20
2022-08-31T18:35:18.717Z,1.30
2022-08-31T18:37:47.300Z,0.90
2022-08-31T18:40:34.978Z,1.20
2022-08-31T18:43:22.454Z,1.60
2022-08-31T18:45:51.727Z,1.60
2022-08-31T18:48:26.177Z,1.80
2022-08-31T18:50:59.214Z,1.80
2022-08-31T18:53:30.250Z,2.30
2022-08-31T18:56:10.335Z,2.30
2022-08-31T18:58:43.005Z,2.70
2022-08-31T19:01:13.787Z,1.90
2022-08-31T19:03:42.663Z,1.40
2022-08-31T19:06:21.088Z,2.30
2022-08-31T19:08:51.295Z,1.80
2022-08-31T19:11:19.751Z,1.50
2022-08-31T19:13:51.238Z,2.00
2022-08-31T19:16:23.881Z,1.70
2022-08-31T19:18:56.181Z,2.20
2022-08-31T19:21:34.262Z,1.60
2022-08-31T19:24:06.053Z,6.70
2022-08-31T19:26:44.662Z,5.60
2022-08-31T19:29:14.805Z,1.90
2022-08-31T19:31:47.127Z,1.70
2022-08-31T19:36:50.372Z,1.70
2022-08-31T19:39:26.638Z,2.20
2022-08-31T19:42:03.552Z,1.60
2022-08-31T19:47:25.486Z,1.80
2022-08-31T19:49:54.240Z,1.90
2022-08-31T19:52:24.485Z,1.90
2022-08-31T19:54:52.997Z,1.50
2022-08-31T19:57:22.627Z,1.70
2022-08-31T19:59:51.062Z,1.40
2022-08-31T20:02:19.473Z,1.70
2022-08-31T20:04:47.814Z,1.80
2022-08-31T20:07:17.195Z,1.90
2022-08-31T20:09:46.210Z,1.90
2022-08-31T20:12:14.878Z,2.40
2022-08-31T20:14:44.995Z,2.20
2022-08-31T20:17:15.012Z,2.40
2022-08-31T20:19:43.594Z,2.00
2022-08-31T20:22:13.815Z,1.70
2022-08-31T20:24:45.054Z,1.30
2022-08-31T20:27:18.604Z,1.30
2022-08-31T20:29:48.364Z,1.00
2022-08-31T20:32:16.807Z,1.10
2022-08-31T20:34:45.270Z,1.20
2022-08-31T20:37:13.606Z,1.10
2022-08-31T20:39:42.401Z,1.20
2022-08-31T20:42:11.043Z,1.30
2022-08-31T20:44:39.773Z,1.30
2022-08-31T20:47:29.036Z,1.10
2022-08-31T20:50:00.287Z,1.80
2022-08-31T20:52:32.916Z,1.40
2022-08-31T20:57:33.212Z,1.20
2022-08-31T21:00:06.130Z,1.40
2022-08-31T21:02:35.193Z,1.30
2022-08-31T21:05:33.940Z,1.40
2022-08-31T21:07:57.414Z,1.50
2022-08-31T21:10:37.165Z,1.40
2022-08-31T21:13:12.886Z,1.60
2022-08-31T21:15:46.681Z,1.30
2022-08-31T21:18:19.203Z,1.60
2022-08-31T21:20:47.753Z,1.30
2022-08-31T21:23:17.007Z,1.20
2022-08-31T21:25:46.778Z,1.30
2022-08-31T21:28:18.238Z,1.40
2022-08-31T21:30:50.245Z,1.40
2022-08-31T21:33:19.254Z,1.70
2022-08-31T21:35:48.011Z,1.50
2022-08-31T21:38:18.060Z,1.50
2022-08-31T21:40:50.369Z,1.20
2022-08-31T21:43:19.765Z,1.70
2022-08-31T21:45:55.021Z,1.30
2022-08-31T21:48:26.128Z,1.20
2022-08-31T21:50:56.003Z,1.30
2022-08-31T21:53:27.227Z,2.00
2022-08-31T21:55:55.590Z,1.30
2022-08-31T21:58:23.906Z,1.20
2022-08-31T22:00:52.710Z,1.30
2022-08-31T22:03:22.540Z,1.20
2022-08-31T22:05:51.064Z,0.90
2022-08-31T22:08:20.530Z,0.90
2022-08-31T22:10:49.361Z,1.10
2022-08-31T22:13:18.338Z,1.00
2022-08-31T22:15:48.201Z,1.00
2022-08-31T22:21:06.392Z,1.00
2022-08-31T22:23:35.873Z,0.80
2022-08-31T22:26:04.309Z,0.70
2022-08-31T22:28:33.914Z,0.90
2022-08-31T22:31:03.910Z,0.90
2022-08-31T22:33:33.338Z,0.70
2022-08-31T22:36:01.939Z,1.00
2022-08-31T22:38:30.521Z,0.90
2022-08-31T22:41:04.494Z,1.20
2022-08-31T22:43:32.925Z,0.70
2022-08-31T22:46:01.897Z,1.00
2022-08-31T22:48:30.577Z,0.90
2022-08-31T22:51:03.820Z,1.30
2022-08-31T22:53:32.890Z,0.90
2022-08-31T22:56:02.976Z,0.80
2022-08-31T22:58:31.354Z,0.60
2022-08-31T23:00:59.630Z,0.70
2022-08-31T23:03:28.111Z,0.80
2022-08-31T23:05:56.698Z,0.70
2022-08-31T23:08:24.971Z,0.90
2022-08-31T23:10:53.349Z,1.00
2022-08-31T23:13:41.809Z,0.70
2022-08-31T23:16:14.225Z,0.70
2022-08-31T23:21:18.916Z,0.80
2022-08-31T23:23:47.601Z,0.90
2022-08-31T23:26:15.980Z,1.40
2022-08-31T23:28:46.931Z,0.80
2022-08-31T23:31:15.335Z,0.80
2022-08-31T23:33:47.200Z,0.70
2022-08-31T23:36:17.360Z,0.80
2022-08-31T23:38:49.780Z,0.50
2022-08-31T23:41:18.715Z,0.70
2022-08-31T23:43:54.394Z,0.70
2022-08-31T23:46:26.396Z,0.70
2022-08-31T23:48:54.840Z,0.90
2022-08-31T23:51:23.618Z,0.90
2022-08-31T23:53:55.340Z,0.70
2022-08-31T23:56:32.776Z,0.80
2022-08-31T23:59:02.885Z,0.70
